Time;durP1;ratioP1;P1;durP2;ratioP2;P2;SDS_P1;SDS_P2;PMS_P1;PMS_P2;Temp;Humidity;BMP_temperature;BMP_pressure;BME280_temperature;BME280_humidity;BME280_pressure;Samples;Min_cycle;Max_cycle;Signal;HPM_P1;HPM_P2
2022/04/11 00:00:06;;;;;;;7.20;2.65;;;;;;;4.01;100.00;98814.65;1713380;83;20995;-71
2022/04/11 00:02:33;;;;;;;7.37;3.42;;;;;;;3.97;100.00;98808.17;1713990;83;21407;-71
2022/04/11 00:05:00;;;;;;;8.93;3.42;;;;;;;3.93;100.00;98810.66;1706218;83;20999;-71
2022/04/11 00:07:28;;;;;;;4.83;2.55;;;;;;;3.93;100.00;98809.86;1706422;83;20979;-71
2022/04/11 00:09:55;;;;;;;6.15;2.80;;;;;;;3.90;100.00;98811.24;1700844;83;21019;-72
2022/04/11 00:12:24;;;;;;;6.20;2.95;;;;;;;3.88;100.00;98809.91;1698096;83;20936;-71
2022/04/11 00:14:52;;;;;;;6.62;2.52;;;;;;;3.86;100.00;98816.99;1689393;83;20887;-71
2022/04/11 00:17:20;;;;;;;5.85;2.62;;;;;;;3.83;100.00;98818.92;1711733;83;20896;-72
2022/04/11 00:19:47;;;;;;;4.42;2.22;;;;;;;3.82;100.00;98819.22;1683099;83;21148;-71
2022/04/11 00:22:13;;;;;;;8.25;2.50;;;;;;;3.82;100.00;98821.93;1716474;83;20903;-72
2022/04/11 00:24:41;;;;;;;8.48;2.12;;;;;;;3.82;100.00;98828.72;1707590;83;21099;-71
2022/04/11 00:27:10;;;;;;;5.50;1.92;;;;;;;3.80;100.00;98826.30;1703974;83;20915;-73
2022/04/11 00:29:37;;;;;;;8.50;2.40;;;;;;;3.80;100.00;98829.55;1698466;83;20895;-73
2022/04/11 00:32:06;;;;;;;3.70;2.30;;;;;;;3.79;100.00;98828.75;1700997;83;21237;-73
2022/04/11 00:34:36;;;;;;;3.80;2.10;;;;;;;3.78;100.00;98837.18;1696555;83;20904;-73
2022/04/11 00:37:04;;;;;;;6.03;2.80;;;;;;;3.77;100.00;98836.92;1710235;83;20932;-72
2022/04/11 00:39:34;;;;;;;3.47;2.50;;;;;;;3.75;100.00;98833.68;1690175;83;20999;-73
2022/04/11 00:42:12;;;;;;;6.03;2.75;;;;;;;3.74;100.00;98841.02;1713503;83;20904;-72
2022/04/11 00:44:39;;;;;;;3.77;2.50;;;;;;;3.74;100.00;98835.59;1683004;83;21876;-72
2022/04/11 00:47:06;;;;;;;7.15;2.60;;;;;;;3.73;100.00;98839.40;1684776;83;21027;-73
2022/04/11 00:49:35;;;;;;;5.80;2.60;;;;;;;3.73;100.00;98840.76;1682343;83;20951;-71
2022/04/11 00:52:03;;;;;;;5.12;2.30;;;;;;;3.73;100.00;98836.69;1714724;83;20950;-72
2022/04/11 00:54:30;;;;;;;4.10;2.62;;;;;;;3.75;100.00;98833.68;1660337;84;21558;-72
2022/04/11 00:56:58;;;;;;;3.83;2.67;;;;;;;3.73;100.00;98835.33;1686494;83;21919;-73
2022/04/11 00:59:25;;;;;;;5.15;2.55;;;;;;;3.72;100.00;98832.35;1693171;83;20920;-73
2022/04/11 01:01:52;;;;;;;6.30;2.60;;;;;;;3.72;100.00;98838.33;1704001;83;21431;-71
2022/04/11 01:04:27;;;;;;;3.17;2.12;;;;;;;3.72;100.00;98829.64;1704680;83;20951;-73
2022/04/11 01:06:55;;;;;;;5.92;2.30;;;;;;;3.72;100.00;98828.83;1685145;83;21082;-73
2022/04/11 01:09:23;;;;;;;6.33;2.95;;;;;;;3.72;100.00;98820.69;1684950;83;21433;-72
2022/04/11 01:11:53;;;;;;;4.08;2.25;;;;;;;3.70;100.00;98810.66;1694209;83;20919;-73
2022/04/11 01:14:20;;;;;;;4.87;2.62;;;;;;;3.69;100.00;98804.97;1683350;83;20979;-73
2022/04/11 01:16:50;;;;;;;3.08;2.33;;;;;;;3.67;100.00;98814.77;1679487;83;21511;-69
2022/04/11 01:19:17;;;;;;;4.62;2.42;;;;;;;3.67;100.00;98814.77;1684044;83;20980;-74
2022/04/11 01:21:45;;;;;;;9.38;2.90;;;;;;;3.66;100.00;98819.93;1681343;83;21242;-72
2022/04/11 01:24:18;;;;;;;6.60;2.80;;;;;;;3.65;100.00;98814.24;1679522;83;21403;-73
2022/04/11 01:26:45;;;;;;;8.58;2.67;;;;;;;3.63;100.00;98823.22;1687418;84;20994;-72
2022/04/11 01:29:14;;;;;;;5.72;2.85;;;;;;;3.61;100.00;98824.86;1701026;83;21490;-76
2022/04/11 01:31:40;;;;;;;7.45;2.50;;;;;;;3.60;100.00;98821.89;1687764;83;21538;-75
2022/04/11 01:34:07;;;;;;;5.95;2.35;;;;;;;3.60;100.00;98821.89;1697381;83;21893;-77
2022/04/11 01:36:35;;;;;;;3.58;2.58;;;;;;;3.61;100.00;98819.44;1696914;83;21581;-76
2022/04/11 01:39:04;;;;;;;5.70;3.15;;;;;;;3.60;100.00;98821.08;1681106;83;20864;-76
2022/04/11 01:41:31;;;;;;;5.47;2.15;;;;;;;3.60;100.00;98827.86;1686923;83;21245;-76
2022/04/11 01:43:58;;;;;;;5.47;2.50;;;;;;;3.59;100.00;98826.25;1683755;83;20868;-76
2022/04/11 01:46:25;;;;;;;4.78;2.72;;;;;;;3.57;100.00;98831.16;1680604;83;21198;-75
2022/04/11 01:48:54;;;;;;;5.50;2.90;;;;;;;3.54;100.00;98833.08;1689192;83;20899;-75
2022/04/11 01:51:21;;;;;;;6.58;2.90;;;;;;;3.51;100.00;98835.02;1685617;84;20916;-75
2022/04/11 01:53:48;;;;;;;6.78;3.60;;;;;;;3.49;100.00;98837.20;1706654;83;21527;-73
2022/04/11 01:56:15;;;;;;;4.67;2.87;;;;;;;3.44;100.00;98844.06;1693023;83;20963;-74
2022/04/11 01:58:42;;;;;;;6.20;2.83;;;;;;;3.38;100.00;98847.92;1699513;83;21138;-73
2022/04/11 02:01:10;;;;;;;9.95;3.10;;;;;;;3.34;100.00;98841.45;1701959;83;21130;-74
2022/04/11 02:03:37;;;;;;;6.37;2.72;;;;;;;3.28;100.00;98837.42;1688736;83;21459;-74
2022/04/11 02:06:04;;;;;;;3.92;2.62;;;;;;;3.24;100.00;98839.08;1702939;83;21565;-74
2022/04/11 02:08:31;;;;;;;4.03;2.70;;;;;;;3.19;100.00;98837.77;1689753;83;20907;-74
2022/04/11 02:11:02;;;;;;;8.88;4.15;;;;;;;3.14;100.00;98836.45;1708503;83;20884;-72
2022/04/11 02:13:29;;;;;;;5.92;3.10;;;;;;;3.11;100.00;98836.22;1688402;83;21585;-72
2022/04/11 02:15:59;;;;;;;8.73;3.52;;;;;;;3.02;100.00;98837.38;1686181;83;20959;-73
2022/04/11 02:18:27;;;;;;;5.60;2.92;;;;;;;2.90;100.00;98841.80;1696230;83;20956;-72
2022/04/11 02:20:55;;;;;;;5.37;2.98;;;;;;;2.80;100.00;98835.66;1681764;83;21525;-71
2022/04/11 02:23:22;;;;;;;5.80;2.70;;;;;;;2.72;100.00;98839.78;1682447;83;21845;-71
2022/04/11 02:25:49;;;;;;;3.67;2.80;;;;;;;2.67;100.00;98841.72;1678458;83;20904;-70
2022/04/11 02:28:16;;;;;;;5.97;3.00;;;;;;;2.62;100.00;98847.44;1693814;83;21585;-72
2022/04/11 02:30:43;;;;;;;5.58;3.27;;;;;;;2.56;100.00;98847.74;1683998;83;20951;-72
2022/04/11 02:33:10;;;;;;;6.62;3.35;;;;;;;2.48;100.00;98846.97;1689515;83;21059;-74
2022/04/11 02:35:37;;;;;;;7.87;3.00;;;;;;;2.38;100.00;98838.91;1703586;83;21510;-73
2022/04/11 02:38:05;;;;;;;5.22;3.00;;;;;;;2.29;100.00;98838.70;1714134;83;21165;-72
2022/04/11 02:40:32;;;;;;;6.85;3.02;;;;;;;2.19;100.00;98838.75;1717588;83;20928;-70
2022/04/11 02:43:05;;;;;;;4.72;3.12;;;;;;;2.09;100.00;98840.16;1692128;83;21042;-70
2022/04/11 02:45:32;;;;;;;6.30;3.40;;;;;;;2.01;100.00;98838.02;1686537;83;20892;-70
2022/04/11 02:48:00;;;;;;;6.85;3.67;;;;;;;2.02;100.00;98832.87;1701927;83;21747;-71
2022/04/11 02:50:28;;;;;;;6.17;3.55;;;;;;;1.95;100.00;98838.58;1707841;83;21007;-71
2022/04/11 02:53:02;;;;;;;8.08;3.45;;;;;;;1.88;100.00;98841.58;1691436;83;20888;-70
2022/04/11 02:55:29;;;;;;;5.62;3.37;;;;;;;1.83;100.00;98840.24;1686517;83;21563;-70
2022/04/11 02:57:56;;;;;;;7.15;3.80;;;;;;;1.77;100.00;98839.17;1680427;83;21036;-70
2022/04/11 03:00:23;;;;;;;7.55;3.62;;;;;;;1.69;100.00;98840.58;1696134;83;21768;-72
2022/04/11 03:02:55;;;;;;;10.40;4.90;;;;;;;1.62;100.00;98846.82;1682997;83;20892;-72
2022/04/11 03:05:22;;;;;;;10.35;4.53;;;;;;;1.58;100.00;98848.45;1701920;83;21198;-72
2022/04/11 03:07:49;;;;;;;9.55;4.65;;;;;;;1.59;100.00;98849.53;1693230;83;21126;-72
2022/04/11 03:10:19;;;;;;;15.45;6.00;;;;;;;1.59;100.00;98850.08;1681140;83;21030;-72
2022/04/11 03:12:48;;;;;;;11.12;5.20;;;;;;;1.58;100.00;98853.86;1693880;83;21954;-72
2022/04/11 03:15:15;;;;;;;12.63;5.60;;;;;;;1.59;100.00;98851.42;1683948;83;20920;-71
2022/04/11 03:17:45;;;;;;;10.88;5.20;;;;;;;1.59;100.00;98852.78;1701145;83;21455;-70
2022/04/11 03:20:12;;;;;;;12.53;5.10;;;;;;;1.58;100.00;98849.27;1692819;83;20916;-72
2022/04/11 03:22:41;;;;;;;9.73;4.80;;;;;;;1.53;100.00;98850.63;1690728;82;20900;-72
2022/04/11 03:25:09;;;;;;;9.25;4.55;;;;;;;1.48;100.00;98852.52;1716413;81;20991;-73
2022/04/11 03:27:38;;;;;;;8.63;4.55;;;;;;;1.42;100.00;98859.02;1711060;81;20987;-74
2022/04/11 03:30:08;;;;;;;7.62;4.85;;;;;;;1.35;100.00;98861.20;1704995;84;20943;-73
2022/04/11 03:32:36;;;;;;;7.75;4.60;;;;;;;1.30;100.00;98860.12;1695476;83;21023;-73
2022/04/11 03:35:07;;;;;;;13.10;4.80;;;;;;;1.32;100.00;98863.36;1659000;85;21832;-73
2022/04/11 03:37:34;;;;;;;10.32;4.97;;;;;;;1.38;100.00;98862.00;1677093;85;21149;-72
2022/04/11 03:40:03;;;;;;;11.55;5.35;;;;;;;1.46;100.00;98860.11;1698682;81;21006;-72
2022/04/11 03:42:30;;;;;;;12.93;4.95;;;;;;;1.51;100.00;98870.38;1714232;81;21432;-73
2022/04/11 03:44:58;;;;;;;11.20;5.00;;;;;;;1.58;100.00;98877.67;1708918;83;20895;-72
2022/04/11 03:47:25;;;;;;;14.13;4.58;;;;;;;1.60;100.00;98886.87;1708216;81;20955;-71
2022/04/11 03:49:53;;;;;;;9.83;4.50;;;;;;;1.61;100.00;98888.48;1716129;82;21153;-73
2022/04/11 03:52:23;;;;;;;10.63;4.20;;;;;;;1.68;100.00;98888.20;1723238;81;20916;-71
2022/04/11 03:54:51;;;;;;;6.87;3.55;;;;;;;1.72;100.00;98883.88;1761766;80;20983;-72
2022/04/11 03:57:17;;;;;;;7.67;3.25;;;;;;;1.77;100.00;98887.34;1763585;80;21539;-72
2022/04/11 03:59:45;;;;;;;16.40;8.20;;;;;;;1.82;100.00;98890.58;1760611;80;21049;-71
2022/04/11 04:02:12;;;;;;;11.97;5.95;;;;;;;1.87;100.00;98892.73;1757869;80;21074;-71
2022/04/11 04:04:39;;;;;;;16.65;4.87;;;;;;;1.92;100.00;98898.14;1761784;81;21531;-73
2022/04/11 04:07:06;;;;;;;9.70;4.85;;;;;;;2.13;100.00;98889.41;1760429;81;21506;-74
2022/04/11 04:09:33;;;;;;;6.72;3.95;;;;;;;2.28;100.00;98890.70;1756583;80;20967;-74
2022/04/11 04:12:00;;;;;;;9.93;3.87;;;;;;;2.29;100.00;98896.94;1765136;80;20976;-74
2022/04/11 04:14:38;;;;;;;6.80;3.98;;;;;;;2.29;100.00;98892.88;1749256;80;20872;-73
2022/04/11 04:17:06;;;;;;;10.75;4.22;;;;;;;2.30;100.00;98891.24;1727830;81;20990;-75
2022/04/11 04:19:35;;;;;;;7.15;3.65;;;;;;;2.35;100.00;98897.16;1731417;80;20915;-75
2022/04/11 04:22:04;;;;;;;13.43;3.60;;;;;;;2.41;100.00;98893.33;1767051;80;20927;-75
2022/04/11 04:24:33;;;;;;;8.05;3.20;;;;;;;2.51;100.00;98901.41;1760068;80;20884;-72
2022/04/11 04:27:04;;;;;;;8.03;3.50;;;;;;;2.59;100.00;98908.16;1753094;80;21166;-73
2022/04/11 04:29:31;;;;;;;7.60;2.90;;;;;;;2.64;100.00;98912.19;1699810;83;20959;-70
2022/04/11 04:31:58;;;;;;;4.50;2.70;;;;;;;2.69;100.00;98915.42;1685885;82;20949;-70
2022/04/11 04:34:25;;;;;;;9.40;3.55;;;;;;;2.72;100.00;98921.09;1665365;84;21580;-70
2022/04/11 04:36:53;;;;;;;13.48;6.60;;;;;;;2.78;99.33;98919.16;1681264;85;20962;-70
2022/04/11 04:39:22;;;;;;;13.13;6.03;;;;;;;2.81;99.15;98922.12;1676859;84;21250;-69
2022/04/11 04:41:49;;;;;;;13.15;5.25;;;;;;;2.86;99.24;98924.81;1667692;84;21024;-71
2022/04/11 04:44:17;;;;;;;7.78;4.25;;;;;;;2.94;99.18;98921.48;1675855;85;21029;-70
2022/04/11 04:46:46;;;;;;;8.15;3.62;;;;;;;3.02;97.91;98921.97;1684215;85;21040;-71
2022/04/11 04:49:18;;;;;;;7.33;4.35;;;;;;;3.06;97.17;98918.42;1664741;85;20973;-71
2022/04/11 04:51:46;;;;;;;7.80;3.55;;;;;;;3.13;96.20;98917.56;1674188;85;20960;-72
2022/04/11 04:54:13;;;;;;;12.20;3.55;;;;;;;3.16;95.74;98910.22;1678461;84;20972;-69
2022/04/11 04:56:41;;;;;;;10.48;4.50;;;;;;;3.20;94.51;98914.53;1676893;84;20908;-72
2022/04/11 04:59:10;;;;;;;13.85;4.25;;;;;;;3.25;94.35;98919.37;1677052;83;21015;-71
2022/04/11 05:01:37;;;;;;;11.40;4.37;;;;;;;3.33;95.04;98916.59;1688504;82;21015;-71
2022/04/11 05:04:05;;;;;;;9.78;4.30;;;;;;;3.43;93.89;98910.28;1680166;84;21773;-72
2022/04/11 05:06:34;;;;;;;12.35;3.77;;;;;;;3.48;93.41;98913.73;1638690;84;20987;-70
2022/04/11 05:09:02;;;;;;;5.67;2.92;;;;;;;3.52;93.81;98913.42;1720967;81;21205;-71
2022/04/11 05:11:29;;;;;;;13.20;3.80;;;;;;;3.57;92.83;98913.93;1724299;81;21417;-71
2022/04/11 05:13:56;;;;;;;5.67;2.95;;;;;;;3.60;91.63;98919.59;1722088;82;21034;-71
2022/04/11 05:16:24;;;;;;;5.72;2.77;;;;;;;3.65;92.55;98921.45;1705197;82;21458;-71
2022/04/11 05:18:51;;;;;;;16.52;3.75;;;;;;;3.73;93.03;98923.55;1714562;81;20928;-70
2022/04/11 05:21:18;;;;;;;5.53;2.75;;;;;;;3.81;91.46;98928.37;1727628;81;21442;-71
2022/04/11 05:23:46;;;;;;;6.72;3.00;;;;;;;3.84;90.98;98925.63;1706777;83;21074;-71
2022/04/11 05:26:13;;;;;;;8.40;2.70;;;;;;;3.88;91.57;98923.41;1704899;82;21937;-71
2022/04/11 05:28:41;;;;;;;7.62;2.60;;;;;;;3.96;91.90;98916.55;1705647;82;21578;-71
2022/04/11 05:31:09;;;;;;;4.70;2.77;;;;;;;4.06;91.82;98923.75;1725435;82;21003;-71
2022/04/11 05:33:38;;;;;;;4.65;2.30;;;;;;;4.16;92.42;98925.00;1690785;82;21051;-70
2022/04/11 05:36:07;;;;;;;5.85;2.58;;;;;;;4.28;92.50;98938.99;1720626;83;21566;-69
2022/04/11 05:38:34;;;;;;;6.62;3.00;;;;;;;4.39;91.72;98939.14;1718223;81;21447;-70
2022/04/11 05:41:01;;;;;;;5.05;2.50;;;;;;;4.48;88.39;98936.59;1714238;83;21152;-70
2022/04/11 05:43:30;;;;;;;4.42;2.25;;;;;;;4.51;88.57;98938.17;1691105;83;20944;-69
2022/04/11 05:45:56;;;;;;;6.42;2.45;;;;;;;4.56;89.07;98948.18;1688741;84;20960;-79
2022/04/11 05:48:25;;;;;;;6.83;2.47;;;;;;;4.60;88.01;98947.86;1721500;83;20943;-75
2022/04/11 05:50:53;;;;;;;3.95;2.12;;;;;;;4.64;87.67;98949.67;1693355;84;21050;-68
2022/04/11 05:53:20;;;;;;;4.42;2.10;;;;;;;4.73;88.17;98956.63;1684899;84;21251;-67
2022/04/11 05:55:47;;;;;;;9.35;2.65;;;;;;;4.81;83.63;98945.66;1682409;84;20948;-67
2022/04/11 05:58:15;;;;;;;8.08;2.40;;;;;;;4.81;83.63;98945.66;1683797;84;20928;-72
2022/04/11 06:00:41;;;;;;;7.55;3.12;;;;;;;4.83;84.99;98947.53;1682291;84;20968;-72
2022/04/11 06:03:09;;;;;;;10.78;4.12;;;;;;;4.87;84.89;98946.66;1668593;84;21076;-68
2022/04/11 06:05:37;;;;;;;7.40;2.55;;;;;;;5.02;83.65;98944.28;1671314;84;21098;-70
2022/04/11 06:08:06;;;;;;;6.42;2.22;;;;;;;5.02;83.65;98944.28;1686831;83;20941;-69
2022/04/11 06:10:36;;;;;;;8.93;2.27;;;;;;;5.11;81.57;98949.87;1715600;82;21499;-75
2022/04/11 06:13:03;;;;;;;7.67;2.62;;;;;;;5.15;82.66;98938.11;1726790;82;20912;-74
2022/04/11 06:15:31;;;;;;;6.85;2.98;;;;;;;5.39;81.88;98946.16;1726131;82;20892;-76
2022/04/11 06:17:59;;;;;;;7.60;2.80;;;;;;;5.39;81.88;98946.16;1696018;82;21231;-75
2022/04/11 06:20:28;;;;;;;6.70;2.22;;;;;;;5.52;82.46;98958.20;1703374;83;21500;-74
2022/04/11 06:22:55;;;;;;;8.40;2.50;;;;;;;5.66;79.75;98952.26;1704637;83;20933;-74
2022/04/11 06:25:23;;;;;;;7.45;2.60;;;;;;;5.76;79.79;98951.28;1702672;82;21078;-73
2022/04/11 06:27:52;;;;;;;7.92;3.08;;;;;;;5.86;79.58;98951.08;1659090;85;20868;-73
2022/04/11 06:30:19;;;;;;;7.65;2.65;;;;;;;5.96;77.74;98960.47;1715403;81;21230;-73
2022/04/11 06:32:45;;;;;;;7.05;2.40;;;;;;;5.98;77.60;98964.26;1714381;81;20911;-69
2022/04/11 06:35:12;;;;;;;4.92;2.22;;;;;;;6.02;75.85;98956.55;1728402;80;21495;-70
2022/04/11 06:37:39;;;;;;;7.12;2.40;;;;;;;6.19;78.42;98961.42;1701997;82;21396;-70
2022/04/11 06:40:09;;;;;;;6.60;2.58;;;;;;;6.19;78.42;98961.42;1703059;82;21064;-70
2022/04/11 06:42:36;;;;;;;4.20;2.25;;;;;;;6.21;74.85;98951.03;1722857;82;21746;-69
2022/04/11 06:45:07;;;;;;;6.70;2.42;;;;;;;6.17;75.63;98961.72;1706404;81;20942;-70
2022/04/11 06:47:35;;;;;;;4.28;2.00;;;;;;;6.20;76.78;98958.39;1721178;82;21039;-70
2022/04/11 06:50:05;;;;;;;10.45;2.90;;;;;;;6.33;77.94;98956.80;1725548;81;21436;-70
2022/04/11 06:52:33;;;;;;;6.25;2.05;;;;;;;6.50;77.19;98958.89;1729875;81;20953;-71
2022/04/11 06:55:00;;;;;;;5.17;2.30;;;;;;;6.65;76.77;98963.23;1709046;82;21216;-70
2022/04/11 06:57:27;;;;;;;8.08;2.20;;;;;;;6.79;76.11;98972.22;1720905;82;20948;-69
2022/04/11 06:59:54;;;;;;;6.53;2.05;;;;;;;6.90;74.98;98964.08;1721729;81;20927;-70
2022/04/11 07:02:21;;;;;;;8.65;2.10;;;;;;;7.02;75.01;98967.06;1718799;82;21023;-68
2022/04/11 07:04:48;;;;;;;4.62;1.87;;;;;;;7.14;75.52;98970.63;1719113;82;20950;-68
2022/04/11 07:07:14;;;;;;;5.20;2.05;;;;;;;7.25;74.74;98973.38;1729971;81;21280;-68
2022/04/11 07:09:42;;;;;;;6.03;2.10;;;;;;;7.39;71.90;98976.08;1708821;82;20952;-68
2022/04/11 07:12:10;;;;;;;9.03;2.90;;;;;;;7.46;70.78;98974.53;1719172;81;20948;-68
2022/04/11 07:14:38;;;;;;;5.80;2.30;;;;;;;7.58;72.70;98982.15;1704903;83;21028;-68
2022/04/11 07:17:05;;;;;;;7.47;2.42;;;;;;;7.71;72.40;98979.11;1699141;83;21043;-69
2022/04/11 07:19:33;;;;;;;4.72;2.33;;;;;;;7.80;69.85;98994.45;1694859;83;21101;-68
2022/04/11 07:22:01;;;;;;;4.65;2.15;;;;;;;7.87;69.24;98986.63;1720476;81;20892;-75
2022/04/11 07:24:28;;;;;;;3.65;2.10;;;;;;;7.91;69.19;98980.79;1719734;80;20935;-68
2022/04/11 07:26:55;;;;;;;9.30;2.25;;;;;;;7.93;68.39;98996.31;1699398;82;21016;-70
2022/04/11 07:29:22;;;;;;;6.60;2.05;;;;;;;8.00;70.40;99001.34;1710886;83;20928;-70
2022/04/11 07:31:48;;;;;;;5.90;1.90;;;;;;;8.14;69.52;98988.37;1711315;83;21099;-70
2022/04/11 07:34:16;;;;;;;7.03;2.60;;;;;;;8.27;66.94;98993.52;1724721;82;21028;-71
2022/04/11 07:36:43;;;;;;;4.10;1.90;;;;;;;8.41;68.21;99001.11;1759325;80;20984;-71
2022/04/11 07:39:09;;;;;;;6.53;2.55;;;;;;;8.80;68.24;99001.64;1759103;80;21057;-71
2022/04/11 07:41:36;;;;;;;5.20;2.50;;;;;;;9.16;62.46;98995.95;1721227;82;21035;-70
2022/04/11 07:44:04;;;;;;;7.53;2.20;;;;;;;9.40;61.82;98993.29;1720041;82;21337;-71
2022/04/11 07:46:31;;;;;;;4.45;2.10;;;;;;;9.56;61.07;98990.31;1711828;83;20865;-69
2022/04/11 07:49:00;;;;;;;6.70;2.40;;;;;;;9.85;58.72;98989.07;1723617;82;21011;-71
2022/04/11 07:51:29;;;;;;;8.05;2.12;;;;;;;10.02;60.01;98995.66;1709714;83;21008;-69
2022/04/11 07:53:56;;;;;;;7.58;2.90;;;;;;;10.20;57.59;99001.39;1708864;83;21111;-69
2022/04/11 07:56:23;;;;;;;5.00;2.15;;;;;;;10.34;58.69;98999.26;1710828;83;21261;-69
2022/04/11 07:58:50;;;;;;;5.50;2.42;;;;;;;10.68;58.87;98998.88;1726649;82;20936;-73
2022/04/11 08:01:17;;;;;;;5.35;2.22;;;;;;;10.90;57.29;98998.61;1711307;83;21023;-72
2022/04/11 08:03:44;;;;;;;5.25;2.30;;;;;;;11.17;54.40;99002.80;1727875;82;21046;-70
2022/04/11 08:06:11;;;;;;;5.67;2.75;;;;;;;11.26;51.54;98993.94;1761580;80;20888;-72
2022/04/11 08:08:44;;;;;;;6.28;2.52;;;;;;;11.16;51.90;98999.81;1763115;80;21303;-71
2022/04/11 08:11:09;;;;;;;4.97;2.30;;;;;;;11.12;53.25;98999.67;1758034;81;21729;-72
2022/04/11 08:13:35;;;;;;;3.98;2.17;;;;;;;11.25;51.69;98997.82;1724442;82;20892;-71
2022/04/11 08:16:05;;;;;;;5.20;2.50;;;;;;;11.31;54.35;99000.61;1690016;83;21551;-69
2022/04/11 08:18:33;;;;;;;8.33;2.25;;;;;;;11.49;52.80;98997.98;1765897;80;20956;-71
2022/04/11 08:21:04;;;;;;;6.97;2.30;;;;;;;11.69;52.20;98994.16;1752001;80;21123;-68
2022/04/11 08:23:31;;;;;;;6.22;2.22;;;;;;;11.94;51.59;98996.48;1758582;80;20884;-68
2022/04/11 08:25:58;;;;;;;7.10;2.47;;;;;;;12.27;51.42;98994.50;1766136;80;20892;-73
2022/04/11 08:28:25;;;;;;;8.08;2.30;;;;;;;12.56;50.07;98990.21;1763140;80;20938;-75
2022/04/11 08:30:52;;;;;;;5.47;2.83;;;;;;;12.52;47.44;98978.27;1765289;81;20917;-77
2022/04/11 08:33:19;;;;;;;12.55;2.47;;;;;;;12.15;46.86;98995.84;1720998;82;21135;-78
2022/04/11 08:35:46;;;;;;;6.30;2.58;;;;;;;11.94;47.33;98989.03;1711841;83;20936;-74
2022/04/11 08:38:13;;;;;;;4.75;2.17;;;;;;;12.04;48.13;98991.94;1710645;83;20952;-75
2022/04/11 08:40:45;;;;;;;7.17;2.17;;;;;;;12.31;49.54;98983.62;1711245;83;21464;-79
2022/04/11 08:43:12;;;;;;;4.08;2.47;;;;;;;12.61;48.11;98986.44;1737215;80;21031;-72
2022/04/11 08:45:40;;;;;;;5.08;2.45;;;;;;;12.97;46.78;98987.00;1736179;80;20976;-70
2022/04/11 08:48:08;;;;;;;6.95;2.45;;;;;;;12.96;42.94;98989.52;1754440;81;20936;-81
2022/04/11 08:50:35;;;;;;;5.28;2.17;;;;;;;12.43;43.05;98996.04;1739560;81;21471;-72
2022/04/11 08:53:02;;;;;;;6.33;2.47;;;;;;;12.01;45.10;98994.80;1711548;81;20952;-75
2022/04/11 08:55:29;;;;;;;5.08;2.72;;;;;;;12.08;47.69;98990.92;1707237;82;21015;-73
2022/04/11 08:57:58;;;;;;;4.75;2.10;;;;;;;12.47;46.79;98988.13;1710098;81;21621;-74
2022/04/11 09:00:24;;;;;;;5.30;2.40;;;;;;;12.78;46.65;99001.91;1729573;81;20857;-70
2022/04/11 09:02:53;;;;;;;5.12;2.25;;;;;;;13.12;45.87;98984.12;1704644;81;21508;-71
2022/04/11 09:05:24;;;;;;;5.95;2.72;;;;;;;13.47;44.72;98995.45;1717698;82;21000;-73
2022/04/11 09:07:56;;;;;;;3.42;2.20;;;;;;;13.56;40.51;98980.95;1721283;81;20936;-71
2022/04/11 09:10:26;;;;;;;9.90;2.67;;;;;;;13.61;42.87;98971.05;1709480;81;21153;-71
2022/04/11 09:12:56;;;;;;;4.70;2.12;;;;;;;13.71;42.18;99007.00;1712412;82;20941;-81
2022/04/11 09:15:23;;;;;;;6.28;2.45;;;;;;;13.83;42.11;99005.00;1712427;81;21067;-75
2022/04/11 09:17:52;;;;;;;5.17;2.20;;;;;;;14.04;43.49;98988.80;1722413;81;20967;-78
2022/04/11 09:20:22;;;;;;;3.75;2.20;;;;;;;14.36;39.53;98983.57;1714740;81;20995;-67
2022/04/11 09:22:50;;;;;;;5.33;2.02;;;;;;;14.62;37.67;98972.02;1710471;81;20996;-70
2022/04/11 09:25:21;;;;;;;9.75;2.80;;;;;;;14.57;38.67;98972.28;1711232;82;20984;-68
2022/04/11 09:28:05;;;;;;;6.08;2.27;;;;;;;14.71;39.81;98979.55;1704338;82;21513;-69
2022/04/11 09:30:38;;;;;;;4.40;2.27;;;;;;;14.91;38.65;98993.45;1732885;82;20994;-71
2022/04/11 09:33:09;;;;;;;4.83;2.10;;;;;;;14.84;37.57;99000.41;1749628;80;21659;-65
2022/04/11 09:35:47;;;;;;;4.62;1.80;;;;;;;14.77;39.40;99005.75;1755117;81;21847;-68
2022/04/11 09:38:20;;;;;;;6.62;2.02;;;;;;;14.96;37.30;99004.23;1739719;81;21625;-69
2022/04/11 09:40:50;;;;;;;3.90;2.08;;;;;;;15.09;38.69;99005.13;1707004;82;20979;-70
2022/04/11 09:43:28;;;;;;;7.78;2.00;;;;;;;15.01;38.24;99010.87;1703817;82;21519;-69
2022/04/11 09:45:59;;;;;;;5.80;1.80;;;;;;;14.72;37.34;98994.97;1706509;82;21122;-78
2022/04/11 09:48:28;;;;;;;5.95;1.87;;;;;;;14.46;38.56;98984.44;1704703;84;21254;-81
2022/04/11 09:50:59;;;;;;;4.17;2.00;;;;;;;14.07;37.95;98963.26;1730010;82;21094;-78
2022/04/11 09:53:34;;;;;;;3.27;1.90;;;;;;;13.64;38.34;98974.48;1712243;82;21003;-81
2022/04/11 09:56:06;;;;;;;5.83;1.95;;;;;;;13.26;38.93;98975.52;1732942;82;20991;-89
2022/04/11 09:58:37;;;;;;;7.08;2.30;;;;;;;12.97;40.09;98977.93;1722911;82;21067;-68
2022/04/11 10:01:05;;;;;;;6.42;1.80;;;;;;;12.87;41.25;98982.75;1733845;81;21527;-71
2022/04/11 10:03:32;;;;;;;2.98;1.72;;;;;;;12.69;38.02;98967.62;1742758;81;21593;-74
2022/04/11 10:06:00;;;;;;;4.42;1.95;;;;;;;12.36;39.43;98972.39;1728008;81;20944;-69
2022/04/11 10:08:27;;;;;;;3.85;1.50;;;;;;;12.36;40.64;98982.03;1712976;82;21594;-72
2022/04/11 10:11:07;;;;;;;;;;;;;;;;;;;;;
2022/04/11 10:13:26;;;;;;;4.25;1.57;;;;;;;12.75;36.82;98981.94;1702579;83;21051;-72
2022/04/11 10:15:55;;;;;;;6.10;2.00;;;;;;;12.63;37.59;98988.84;1728664;82;21067;-70
2022/04/11 10:18:27;;;;;;;3.02;1.47;;;;;;;12.32;38.74;98964.59;1736921;80;21515;-68
2022/04/11 10:21:01;;;;;;;3.40;1.67;;;;;;;12.03;39.84;98972.45;1726656;81;21042;-71
2022/04/11 10:23:49;;;;;;;6.40;2.02;;;;;;;11.84;40.42;98964.13;1703356;82;20967;-72
2022/04/11 10:26:19;;;;;;;6.53;2.00;;;;;;;11.77;41.52;98965.25;1699170;82;22460;-73
2022/04/11 10:28:54;;;;;;;6.25;1.90;;;;;;;11.94;41.98;98974.48;1719616;82;21376;-72
2022/04/11 10:31:18;;;;;;;2.60;1.40;;;;;;;12.00;41.04;98980.80;1695840;82;21132;-71
2022/04/11 10:33:53;;;;;;;6.72;1.55;;;;;;;12.00;41.69;98980.00;1736679;81;21010;-70
2022/04/11 10:36:35;;;;;;;3.25;1.75;;;;;;;12.13;40.55;98978.91;1717039;81;21008;-71
2022/04/11 10:39:20;;;;;;;5.33;1.72;;;;;;;12.49;40.87;98968.52;1733426;80;21136;-70
2022/04/11 10:41:59;;;;;;;4.80;1.85;;;;;;;12.94;39.95;98961.52;1737072;81;22193;-68
2022/04/11 10:44:43;;;;;;;5.67;1.87;;;;;;;12.99;38.98;98975.06;1728439;81;21001;-66
2022/04/11 10:47:20;;;;;;;10.20;2.50;;;;;;;12.78;38.96;98968.86;1764576;80;20981;-72
2022/04/11 10:49:54;;;;;;;6.03;2.73;;;;;;;12.44;39.23;98964.04;1743123;81;21536;-71
2022/04/11 10:52:35;;;;;;;4.35;1.40;;;;;;;12.06;39.14;98964.32;1756185;80;21165;-79
2022/04/11 10:55:08;;;;;;;4.15;1.80;;;;;;;11.91;40.23;98973.20;1751231;80;21433;-80
2022/04/11 10:57:44;;;;;;;5.58;2.02;;;;;;;11.94;39.26;98961.53;1761904;80;21008;-69
2022/04/11 11:00:17;;;;;;;4.95;1.92;;;;;;;12.07;40.22;98967.88;1761219;81;20953;-68
2022/04/11 11:02:57;;;;;;;5.60;1.90;;;;;;;12.19;40.41;98973.39;1751422;80;21014;-67
2022/04/11 11:05:40;;;;;;;4.97;1.57;;;;;;;12.15;40.24;98984.84;1746063;80;21156;-68
2022/04/11 11:08:17;;;;;;;5.28;1.77;;;;;;;12.06;40.67;98989.66;1753502;81;20922;-69
2022/04/11 11:10:56;;;;;;;4.08;2.12;;;;;;;11.99;40.09;98991.58;1732963;81;20966;-72
2022/04/11 11:13:32;;;;;;;5.62;1.70;;;;;;;11.93;40.77;98994.87;1734667;81;20914;-67
2022/04/11 11:16:14;;;;;;;2.98;1.50;;;;;;;12.00;39.57;98984.12;1735053;82;21516;-65
2022/04/11 11:18:52;;;;;;;5.35;1.85;;;;;;;12.18;37.50;98979.46;1745123;81;21251;-65
2022/04/11 11:21:37;;;;;;;4.97;1.82;;;;;;;12.41;35.95;98972.98;1742461;81;21548;-66
2022/04/11 11:24:10;;;;;;;3.98;1.55;;;;;;;12.50;36.20;98968.75;1745302;81;20938;-66
2022/04/11 11:26:54;;;;;;;4.87;1.92;;;;;;;12.39;38.79;98976.64;1743233;80;21543;-67
2022/04/11 11:29:31;;;;;;;5.67;1.75;;;;;;;12.22;37.89;98980.39;1686360;83;20928;-68
2022/04/11 11:32:05;;;;;;;3.87;1.95;;;;;;;11.93;36.80;98981.13;1687479;83;21312;-70
2022/04/11 11:34:38;;;;;;;4.65;1.80;;;;;;;11.63;37.81;98979.81;1689159;83;20902;-69
2022/04/11 11:37:08;;;;;;;4.28;1.30;;;;;;;11.41;38.83;98973.30;1684620;83;21010;-79
2022/04/11 11:39:37;;;;;;;5.70;1.80;;;;;;;11.29;40.15;98978.16;1686029;83;21110;-72
2022/04/11 11:42:06;;;;;;;4.35;1.50;;;;;;;11.21;39.61;98970.78;1700000;83;20927;-70
2022/04/11 11:44:44;;;;;;;4.35;1.35;;;;;;;11.18;39.42;98963.20;1681144;83;21254;-69